Time;durP1;ratioP1;P1;durP2;ratioP2;P2;SDS_P1;SDS_P2;PMS_P1;PMS_P2;Temp;Humidity;BMP_temperature;BMP_pressure;BME280_temperature;BME280_humidity;BME280_pressure;Samples;Min_cycle;Max_cycle;Signal;HPM_P1;HPM_P2
2023/04/08 00:01:43;;;;;;;6.10;4.70;;;5.70;99.90;;;-141.84;86.22;19344.41;5071681;28;20211;-52
2023/04/08 00:04:13;;;;;;;6.53;5.40;;;5.70;99.90;;;-141.84;84.58;19338.28;5071760;28;20203;-54
2023/04/08 00:06:41;;;;;;;5.77;5.10;;;5.90;99.90;;;-141.84;84.89;19313.91;5071270;28;20230;-53
2023/04/08 00:09:11;;;;;;;6.63;4.90;;;5.80;99.90;;;-141.84;85.35;19324.06;5070681;28;20231;-53
2023/04/08 00:11:39;;;;;;;5.20;4.53;;;5.80;99.90;;;-141.84;85.52;19356.59;5071510;28;20235;-52
2023/04/08 00:14:08;;;;;;;5.93;4.93;;;5.80;99.90;;;-141.84;84.92;19340.31;5071205;28;20245;-54
2023/04/08 00:16:36;;;;;;;6.57;5.30;;;5.80;99.90;;;-141.84;84.91;19324.06;5071513;28;20200;-53
2023/04/08 00:19:05;;;;;;;6.47;5.30;;;5.80;99.90;;;-141.84;84.90;19356.59;5070779;28;20297;-49
2023/04/08 00:21:33;;;;;;;5.47;4.87;;;5.80;99.90;;;-141.84;85.38;19297.66;5071078;28;20237;-53
2023/04/08 00:24:01;;;;;;;6.20;5.27;;;5.70;99.90;;;-141.84;86.38;19301.72;5070756;28;20242;-53
2023/04/08 00:26:31;;;;;;;6.83;5.57;;;5.70;99.90;;;-141.84;86.62;19332.19;5070714;28;20230;-52
2023/04/08 00:28:59;;;;;;;6.63;5.40;;;5.70;99.90;;;-141.84;86.32;19311.88;5070284;28;20236;-53
2023/04/08 00:31:27;;;;;;;5.77;5.07;;;5.70;99.90;;;-141.84;86.21;19299.69;5070994;28;20203;-55
2023/04/08 00:33:55;;;;;;;6.00;5.30;;;5.70;99.90;;;-141.84;85.12;19305.78;5070745;28;20595;-52
2023/04/08 00:36:25;;;;;;;6.17;5.10;;;5.80;99.90;;;-141.84;84.84;19301.72;5071031;28;20240;-55
2023/04/08 00:38:53;;;;;;;6.07;5.43;;;5.80;99.90;;;-141.84;85.14;19332.19;5070625;28;20233;-53
2023/04/08 00:41:21;;;;;;;5.87;4.83;;;5.80;99.90;;;-141.84;84.81;19338.28;5070855;28;20226;-53
2023/04/08 00:43:52;;;;;;;5.43;4.90;;;5.80;99.90;;;-141.84;85.36;19320.00;5070936;28;20238;-53
2023/04/08 00:46:21;;;;;;;5.50;4.60;;;5.80;99.90;;;-141.84;85.94;19328.13;5071217;28;20213;-47
2023/04/08 00:48:49;;;;;;;5.27;4.77;;;5.70;99.90;;;-141.84;85.89;19297.66;5070071;28;20284;-51
2023/04/08 00:51:18;;;;;;;6.20;4.70;;;5.70;99.90;;;-141.84;86.06;19297.66;5070548;28;20317;-51
2023/04/08 00:53:47;;;;;;;5.40;4.67;;;5.70;99.90;;;-141.84;86.07;19311.88;5070298;28;20231;-53
2023/04/08 00:56:15;;;;;;;6.63;5.20;;;5.60;99.90;;;-141.84;86.06;19289.53;5069881;28;20295;-52
2023/04/08 00:58:43;;;;;;;5.83;4.57;;;5.70;99.90;;;-141.84;85.38;19317.97;5070724;28;20217;-54
2023/04/08 01:01:23;;;;;;;5.30;4.80;;;5.70;99.90;;;-141.84;85.04;19309.84;5070998;28;20306;-51
2023/04/08 01:04:07;;;;;;;6.73;5.10;;;5.80;99.90;;;-141.84;85.60;19332.19;5070223;28;20620;-53
2023/04/08 01:06:49;;;;;;;6.63;4.93;;;5.70;99.90;;;-141.84;85.77;19330.16;5068735;28;20249;-51
2023/04/08 01:09:23;;;;;;;6.53;5.37;;;5.80;99.90;;;-141.84;85.96;19307.81;5064518;28;20224;-53
2023/04/08 01:11:55;;;;;;;5.23;4.73;;;5.70;99.90;;;-141.84;85.82;19309.84;5050358;28;20609;-53
2023/04/08 01:14:28;;;;;;;6.90;5.47;;;5.70;99.90;;;-141.84;86.15;19287.50;5050347;28;20273;-53
2023/04/08 01:17:02;;;;;;;6.83;5.27;;;5.70;99.90;;;-141.84;85.89;19324.06;5050214;28;20231;-52
2023/04/08 01:19:35;;;;;;;6.10;5.50;;;5.70;99.90;;;-141.84;85.74;19297.66;5050155;28;20196;-54
2023/04/08 01:22:15;;;;;;;6.60;5.70;;;5.70;99.90;;;-141.84;85.77;19305.78;5050553;28;20199;-53
2023/04/08 01:24:47;;;;;;;6.93;5.53;;;5.70;99.90;;;-141.84;85.15;19285.47;5054344;28;20223;-54
2023/04/08 01:27:19;;;;;;;7.07;5.73;;;5.70;99.90;;;-141.84;85.08;19283.44;5070392;28;20610;-51
2023/04/08 01:29:49;;;;;;;6.03;5.17;;;5.70;99.90;;;-141.84;84.96;19285.47;5050281;28;20725;-53
2023/04/08 01:32:18;;;;;;;8.40;5.37;;;5.70;99.90;;;-141.84;85.12;19291.56;5049100;28;20227;-53
2023/04/08 01:34:47;;;;;;;6.33;5.00;;;5.70;99.90;;;-141.84;85.93;19261.06;5050070;28;20236;-50
2023/04/08 01:37:17;;;;;;;6.43;4.90;;;5.70;99.90;;;-141.84;86.48;19287.50;5065926;28;20232;-55
2023/04/08 01:39:48;;;;;;;6.10;4.50;;;5.70;99.90;;;-141.84;85.49;19324.06;5069899;28;20230;-50
2023/04/08 01:42:18;;;;;;;6.23;4.80;;;5.70;99.90;;;-141.84;85.04;19289.53;5069942;28;20238;-52
2023/04/08 01:44:48;;;;;;;5.63;4.50;;;5.70;99.90;;;-141.84;85.50;19317.97;5089852;28;20236;-52
2023/04/08 01:47:16;;;;;;;5.63;4.63;;;5.70;99.90;;;-141.84;85.52;19285.47;5089306;28;20233;-50
2023/04/08 01:49:46;;;;;;;6.70;4.60;;;5.70;99.90;;;-141.84;85.33;19293.59;5090010;28;20284;-51
2023/04/08 01:52:18;;;;;;;5.30;4.60;;;5.70;99.90;;;-141.84;84.68;19283.44;5090042;28;20673;-52
2023/04/08 01:54:47;;;;;;;5.30;4.53;;;5.70;99.90;;;-141.84;84.36;19317.97;5084160;28;20225;-54
2023/04/08 01:57:23;;;;;;;7.43;4.40;;;5.80;99.90;;;-141.84;84.76;19317.97;5069576;28;20242;-52
2023/04/08 01:59:56;;;;;;;7.50;5.10;;;5.70;99.90;;;-141.84;84.97;19289.53;5069825;28;20237;-52
2023/04/08 02:02:27;;;;;;;6.07;4.73;;;5.70;99.90;;;-141.84;85.79;19281.41;5069213;28;20223;-52
2023/04/08 02:04:58;;;;;;;5.90;4.93;;;5.60;99.90;;;-141.84;85.59;19301.72;5069850;28;20231;-54
2023/04/08 02:07:26;;;;;;;6.73;4.67;;;5.60;99.90;;;-141.84;85.79;19295.63;5069814;28;20273;-52
2023/04/08 02:09:55;;;;;;;7.50;4.90;;;5.60;99.90;;;-141.84;85.91;19297.66;5059351;28;20207;-49
2023/04/08 02:12:26;;;;;;;7.07;5.27;;;5.60;99.90;;;-141.84;85.75;19311.88;5049644;28;20241;-55
2023/04/08 02:14:57;;;;;;;6.30;4.93;;;5.60;99.90;;;-141.84;85.52;19317.97;5049519;28;20235;-51
2023/04/08 02:17:33;;;;;;;6.53;5.00;;;5.70;99.90;;;-141.84;84.72;19297.66;5049157;28;20517;-53
2023/04/08 02:20:08;;;;;;;6.83;5.50;;;5.70;99.90;;;-141.84;85.31;19332.19;5049594;28;20317;-55
2023/04/08 02:22:44;;;;;;;6.57;5.20;;;5.70;99.90;;;-141.84;85.56;19315.94;5049548;28;20187;-53
2023/04/08 02:25:16;;;;;;;8.50;5.63;;;5.70;99.90;;;-141.84;84.95;19297.66;5057963;28;20234;-51
2023/04/08 02:27:48;;;;;;;8.07;6.10;;;5.70;99.90;;;-141.84;85.39;19330.16;5068934;28;20250;-52
2023/04/08 02:30:18;;;;;;;7.97;5.80;;;5.70;99.90;;;-141.84;85.15;19267.16;5069352;28;20285;-53
2023/04/08 02:32:48;;;;;;;7.37;5.67;;;5.70;99.90;;;-141.84;85.24;19297.66;5068846;28;20231;-47
2023/04/08 02:35:17;;;;;;;7.83;6.00;;;5.70;99.90;;;-141.84;85.79;19289.53;5069458;28;20235;-49
2023/04/08 02:37:47;;;;;;;6.40;5.63;;;5.70;99.90;;;-141.84;85.64;19293.59;5068982;28;20257;-52
2023/04/08 02:40:27;;;;;;;7.60;5.43;;;5.60;99.90;;;-141.84;85.72;19305.78;5083521;28;20215;-53
2023/04/08 02:42:58;;;;;;;7.50;6.00;;;5.70;99.90;;;-141.84;85.08;19328.13;5091637;28;20231;-54
2023/04/08 02:45:30;;;;;;;8.83;6.20;;;5.70;99.90;;;-141.84;84.83;19305.78;5093372;28;20225;-55
2023/04/08 02:48:00;;;;;;;7.50;6.07;;;5.70;99.90;;;-141.84;85.38;19271.25;5092592;28;20225;-52
2023/04/08 02:50:28;;;;;;;7.00;5.97;;;5.70;99.90;;;-141.84;85.61;19322.03;5093220;28;20284;-52
2023/04/08 02:52:57;;;;;;;7.63;5.97;;;5.60;99.90;;;-141.84;85.91;19273.28;5093077;28;20226;-52
2023/04/08 02:55:25;;;;;;;8.10;6.13;;;5.60;99.90;;;-141.84;85.91;19289.53;5082109;28;20220;-55
2023/04/08 02:57:53;;;;;;;8.70;6.33;;;5.60;99.90;;;-141.84;85.25;19277.34;5073041;28;20659;-53
2023/04/08 03:00:22;;;;;;;7.40;6.47;;;5.70;99.90;;;-141.84;85.56;19283.44;5072834;28;20231;-51
2023/04/08 03:02:51;;;;;;;8.87;5.90;;;5.60;99.90;;;-141.84;85.87;19295.63;5071941;28;20717;-55
2023/04/08 03:05:20;;;;;;;8.10;6.30;;;5.60;99.90;;;-141.84;85.70;19281.41;5072594;28;20796;-53
2023/04/08 03:07:48;;;;;;;8.27;6.30;;;5.60;99.90;;;-141.84;86.04;19297.66;5072246;28;20725;-51
2023/04/08 03:10:16;;;;;;;7.37;5.73;;;5.60;99.90;;;-141.84;84.75;19305.78;5059017;28;20398;-53
2023/04/08 03:12:44;;;;;;;8.83;6.90;;;5.80;99.90;;;-141.84;84.86;19301.72;5052367;28;20623;-51
2023/04/08 03:15:13;;;;;;;8.00;6.47;;;5.80;99.90;;;-141.84;85.42;19295.63;5052329;28;20237;-51
2023/04/08 03:17:42;;;;;;;10.13;6.77;;;5.70;99.90;;;-141.84;85.49;19295.63;5051728;28;20745;-51
2023/04/08 03:20:11;;;;;;;9.33;7.30;;;5.70;99.90;;;-141.84;85.58;19295.63;5052354;28;20674;-51
2023/04/08 03:22:39;;;;;;;8.83;7.10;;;5.70;99.90;;;-141.84;84.78;19301.72;5052076;28;20571;-49
2023/04/08 03:25:10;;;;;;;11.30;7.70;;;5.70;99.90;;;-141.84;85.12;19311.88;5060259;28;20230;-50
2023/04/08 03:27:38;;;;;;;8.73;6.90;;;5.70;99.90;;;-141.84;85.20;19295.63;5071695;28;20236;-52
2023/04/08 03:30:08;;;;;;;10.30;7.13;;;5.70;99.90;;;-141.84;86.13;19291.56;5072164;28;20226;-51
2023/04/08 03:32:37;;;;;;;10.90;7.27;;;5.60;99.90;;;-141.84;86.14;19267.16;5071775;28;20231;-53
2023/04/08 03:35:07;;;;;;;9.97;6.97;;;5.70;99.90;;;-141.84;86.85;19273.28;5074087;28;20239;-58
2023/04/08 03:37:36;;;;;;;9.80;7.33;;;5.60;99.90;;;-141.84;86.29;19297.66;5075367;28;20611;-52
2023/04/08 03:40:05;;;;;;;8.13;6.57;;;5.60;99.90;;;-141.84;86.74;19277.34;5072404;28;20211;-52
2023/04/08 03:42:33;;;;;;;9.87;7.07;;;5.60;99.90;;;-141.84;86.14;19295.63;5071780;28;20613;-52
2023/04/08 03:45:02;;;;;;;10.60;7.10;;;5.60;99.90;;;-141.84;85.76;19277.34;5072024;28;20237;-49
2023/04/08 03:47:31;;;;;;;9.97;6.83;;;5.70;99.90;;;-141.84;85.95;19301.72;5071391;28;20283;-53
2023/04/08 03:49:59;;;;;;;10.67;7.17;;;5.70;99.90;;;-141.84;84.99;19281.41;5071920;28;20234;-53
2023/04/08 03:52:29;;;;;;;9.83;6.83;;;5.70;99.90;;;-141.84;85.54;19281.41;5071567;28;20678;-51
2023/04/08 03:54:57;;;;;;;10.83;6.77;;;5.70;99.90;;;-141.84;86.10;19261.06;5071311;28;20226;-53
2023/04/08 03:57:25;;;;;;;9.97;6.60;;;5.70;99.90;;;-141.84;85.92;19289.53;5071871;28;20230;-52
2023/04/08 03:59:54;;;;;;;12.23;6.67;;;5.70;99.90;;;-141.84;85.61;19254.97;5071630;28;20234;-51
2023/04/08 04:02:22;;;;;;;8.80;6.43;;;5.70;99.90;;;-141.84;86.30;19230.59;5071272;28;20241;-55
2023/04/08 04:04:50;;;;;;;9.37;6.83;;;5.60;99.90;;;-141.84;86.67;19277.34;5071591;28;20227;-52
2023/04/08 04:07:19;;;;;;;9.03;6.43;;;5.60;99.90;;;-141.84;85.92;19248.88;5072139;28;20214;-52
2023/04/08 04:09:48;;;;;;;8.73;6.27;;;5.60;99.90;;;-141.84;86.53;19287.50;5061486;28;20227;-53
2023/04/08 04:12:16;;;;;;;9.10;6.20;;;5.60;99.90;;;-141.84;87.36;19267.16;5051671;28;20509;-56
2023/04/08 04:14:45;;;;;;;9.17;6.50;;;5.50;99.90;;;-141.84;87.36;19285.47;5051386;28;20297;-52
2023/04/08 04:17:13;;;;;;;8.87;5.87;;;5.50;99.90;;;-141.84;87.87;19234.66;5050879;28;20231;-55
2023/04/08 04:19:41;;;;;;;8.57;6.03;;;5.50;99.90;;;-141.84;87.56;19277.34;5051456;28;20295;-51
2023/04/08 04:22:10;;;;;;;8.40;5.50;;;5.50;99.90;;;-141.84;87.10;19240.75;5051867;28;20204;-54
2023/04/08 04:24:38;;;;;;;7.77;5.83;;;5.50;99.90;;;-141.84;87.21;19244.81;5054537;28;20240;-53
2023/04/08 04:27:08;;;;;;;8.27;6.00;;;5.50;99.90;;;-141.84;87.49;19263.09;5071016;28;20743;-53
2023/04/08 04:29:36;;;;;;;9.00;6.23;;;5.50;99.90;;;-141.84;87.88;19281.41;5070445;28;20229;-57
2023/04/08 04:32:05;;;;;;;8.57;6.10;;;5.50;99.90;;;-141.84;87.85;19240.75;5078558;28;20226;-53
2023/04/08 04:34:33;;;;;;;8.33;5.90;;;5.50;99.90;;;-141.84;87.74;19246.84;5090969;28;20700;-55
2023/04/08 04:37:01;;;;;;;9.17;6.10;;;5.60;99.90;;;-141.84;87.75;19240.75;5077734;28;20235;-54
2023/04/08 04:39:29;;;;;;;9.53;6.33;;;5.60;99.90;;;-141.84;87.71;19271.25;5070782;28;20230;-52
2023/04/08 04:41:58;;;;;;;9.80;5.93;;;5.60;99.90;;;-141.84;87.65;19254.97;5070827;28;20326;-51
2023/04/08 04:44:27;;;;;;;8.77;6.07;;;5.60;99.90;;;-141.84;87.81;19248.88;5071018;28;20232;-55
2023/04/08 04:46:55;;;;;;;8.10;5.70;;;5.60;99.90;;;-141.84;87.97;19289.53;5070632;28;20241;-51
2023/04/08 04:49:24;;;;;;;8.13;6.03;;;5.60;99.90;;;-141.84;87.96;19281.41;5071269;28;20681;-56
2023/04/08 04:51:52;;;;;;;8.47;6.03;;;5.60;99.90;;;-141.84;87.59;19275.31;5070818;28;20310;-54
2023/04/08 04:54:20;;;;;;;7.87;5.87;;;5.60;99.90;;;-141.84;88.16;19265.13;5070275;28;20227;-54
2023/04/08 04:56:48;;;;;;;6.70;5.27;;;5.50;99.90;;;-141.84;88.13;19283.44;5070608;28;20233;-55
2023/04/08 04:59:18;;;;;;;7.83;5.70;;;5.60;99.90;;;-141.84;86.89;19277.34;5070659;28;20235;-55
2023/04/08 05:01:47;;;;;;;6.83;5.17;;;5.70;99.90;;;-141.84;86.64;19248.88;5070034;28;20227;-54
2023/04/08 05:04:16;;;;;;;6.37;5.20;;;5.70;99.90;;;-141.84;87.14;19295.63;5071181;28;20234;-56
2023/04/08 05:06:44;;;;;;;10.83;8.63;;;5.60;99.90;;;-141.84;87.53;19238.72;5069243;28;20219;-57
2023/04/08 05:09:12;;;;;;;9.73;7.90;;;5.60;99.90;;;-141.84;88.47;19291.56;5065133;28;20233;-57
2023/04/08 05:11:40;;;;;;;9.27;6.07;;;5.50;99.90;;;-141.84;87.97;19230.59;5050370;28;20625;-54
2023/04/08 05:14:08;;;;;;;7.53;5.87;;;5.60;99.90;;;-141.84;87.42;19259.03;5050525;28;20226;-55
2023/04/08 05:16:37;;;;;;;7.40;5.30;;;5.60;99.90;;;-141.84;86.82;19285.47;5049667;28;20258;-53
2023/04/08 05:19:07;;;;;;;7.30;5.83;;;5.60;99.90;;;-141.84;86.30;19275.31;5050858;28;20303;-56
2023/04/08 05:21:35;;;;;;;6.43;5.23;;;5.70;99.90;;;-141.84;86.64;19265.13;5049908;28;20251;-53
2023/04/08 05:24:03;;;;;;;8.90;5.27;;;5.60;99.90;;;-141.84;86.83;19265.13;5049917;28;20242;-51
2023/04/08 05:26:31;;;;;;;7.03;5.27;;;5.70;99.90;;;-141.84;86.79;19273.28;5069329;28;20227;-51
2023/04/08 05:29:00;;;;;;;6.53;5.00;;;5.70;99.90;;;-141.84;86.69;19281.41;5082964;28;20607;-54
2023/04/08 05:31:28;;;;;;;8.13;5.30;;;5.70;99.90;;;-141.84;86.34;19257.00;5089885;28;20232;-53
2023/04/08 05:33:57;;;;;;;6.63;5.03;;;5.70;99.90;;;-141.84;85.88;19269.22;5090751;28;20209;-51
2023/04/08 05:36:26;;;;;;;7.33;5.07;;;5.70;99.90;;;-141.84;86.52;19259.03;5081387;28;20242;-52
2023/04/08 05:38:55;;;;;;;6.87;5.37;;;5.70;99.90;;;-141.84;85.95;19293.59;5070383;28;20262;-50
2023/04/08 05:41:23;;;;;;;8.03;5.60;;;5.70;99.90;;;-141.84;86.57;19257.00;5070485;28;20411;-53
2023/04/08 05:43:51;;;;;;;6.47;4.90;;;5.70;99.90;;;-141.84;86.69;19271.25;5070181;28;20226;-52
2023/04/08 05:46:19;;;;;;;7.07;5.10;;;5.70;99.90;;;-141.84;86.94;19332.19;5069516;28;20316;-53
2023/04/08 05:48:47;;;;;;;7.67;5.57;;;5.70;99.90;;;-141.84;87.35;19271.25;5069907;28;20254;-49
2023/04/08 05:51:17;;;;;;;8.90;6.03;;;5.60;99.90;;;-141.84;87.26;19259.03;5069739;28;20509;-53
2023/04/08 05:53:47;;;;;;;6.47;5.33;;;5.70;99.90;;;-141.84;87.88;19261.06;5070031;28;20228;-51
2023/04/08 05:56:15;;;;;;;6.60;5.77;;;5.60;99.90;;;-141.84;88.16;19259.03;5069819;28;20298;-51
2023/04/08 05:58:43;;;;;;;7.97;5.60;;;5.60;99.90;;;-141.84;88.02;19248.88;5070133;28;20202;-54
2023/04/08 06:01:11;;;;;;;6.63;5.23;;;5.70;99.90;;;-141.84;88.32;19248.88;5069552;28;20204;-53
2023/04/08 06:03:40;;;;;;;6.70;5.10;;;5.60;99.90;;;-141.84;88.67;19232.63;5069615;28;20318;-54
2023/04/08 06:06:11;;;;;;;6.80;5.33;;;5.60;99.90;;;-141.84;89.00;19224.50;5069417;28;20319;-53
2023/04/08 06:08:39;;;;;;;7.60;5.57;;;5.70;99.90;;;-141.84;88.81;19236.69;5068645;28;20688;-53
2023/04/08 06:11:09;;;;;;;7.97;5.77;;;5.70;99.90;;;-141.84;88.69;19242.78;5049612;28;20553;-54
2023/04/08 06:13:37;;;;;;;6.90;5.23;;;5.70;99.90;;;-141.84;88.26;19271.25;5049854;28;20210;-52
2023/04/08 06:16:12;;;;;;;7.97;5.57;;;5.70;99.90;;;-141.84;87.88;19281.41;5048903;28;20806;-54
2023/04/08 06:18:40;;;;;;;9.57;6.27;;;5.80;99.90;;;-141.84;88.09;19226.53;5051957;28;20283;-51
2023/04/08 06:21:10;;;;;;;7.73;5.90;;;5.70;99.90;;;-141.84;88.78;19254.97;5053214;28;20284;-52
2023/04/08 06:23:38;;;;;;;7.97;5.73;;;5.70;99.90;;;-141.84;88.73;19250.91;5053167;28;20246;-54
2023/04/08 06:26:07;;;;;;;7.80;5.87;;;5.80;99.90;;;-141.84;88.15;19242.78;5093534;28;20226;-51
2023/04/08 06:28:36;;;;;;;9.17;6.47;;;5.80;99.90;;;-141.84;87.63;19261.06;5079664;28;20684;-50
2023/04/08 06:31:05;;;;;;;7.80;5.93;;;5.90;99.90;;;-141.84;87.63;19259.03;5073539;28;20670;-52
2023/04/08 06:33:33;;;;;;;9.10;6.40;;;5.90;99.90;;;-141.84;87.58;19289.53;5070731;28;20230;-53
2023/04/08 06:36:05;;;;;;;10.73;7.07;;;5.90;99.90;;;-141.84;87.63;19281.41;5072838;28;20234;-53
2023/04/08 06:38:33;;;;;;;9.30;6.53;;;6.00;99.90;;;-141.84;87.21;19263.09;5073204;28;20529;-51
2023/04/08 06:41:04;;;;;;;11.20;8.00;;;6.00;99.90;;;-141.84;87.40;19287.50;5073121;28;20223;-55
2023/04/08 06:43:36;;;;;;;13.77;8.07;;;6.00;99.90;;;-141.84;87.32;19279.38;5072325;28;20239;-56
2023/04/08 06:46:05;;;;;;;12.83;8.57;;;6.00;99.90;;;-141.84;87.65;19305.78;5073162;28;20206;-54
2023/04/08 06:48:34;;;;;;;13.67;8.33;;;6.00;99.90;;;-141.84;88.44;19281.41;5073177;28;20796;-52
2023/04/08 06:51:02;;;;;;;13.80;9.00;;;6.00;99.90;;;-141.84;88.22;19297.66;5072798;28;20239;-54
2023/04/08 06:53:32;;;;;;;15.80;9.00;;;6.10;99.90;;;-141.84;87.34;19297.66;5073020;28;20232;-52
2023/04/08 06:56:00;;;;;;;16.20;8.73;;;6.20;99.90;;;-141.84;87.28;19252.94;5073063;28;20305;-54
2023/04/08 06:58:29;;;;;;;14.80;9.17;;;6.20;99.90;;;-141.84;87.81;19293.59;5073420;28;20227;-54
2023/04/08 07:01:00;;;;;;;14.70;10.00;;;6.20;99.90;;;-141.84;86.85;19313.91;5072948;28;20207;-51
2023/04/08 07:03:28;;;;;;;16.73;9.30;;;6.20;99.90;;;-141.84;86.09;19289.53;5072814;28;20723;-52
2023/04/08 07:05:56;;;;;;;14.83;9.10;;;6.40;99.90;;;-141.84;86.66;19305.78;5072550;28;20282;-52
2023/04/08 07:08:24;;;;;;;13.60;9.20;;;6.40;99.90;;;-141.84;86.73;19273.28;5072601;28;20719;-52
2023/04/08 07:10:53;;;;;;;13.53;8.83;;;6.40;99.90;;;-141.84;86.51;19326.09;5053578;28;20235;-53
2023/04/08 07:13:22;;;;;;;16.73;9.43;;;6.50;99.90;;;-141.84;85.58;19326.09;5068773;28;20550;-52
2023/04/08 07:15:50;;;;;;;17.23;10.47;;;6.60;99.90;;;-141.84;84.99;19350.50;5072259;28;20297;-52
2023/04/08 07:18:20;;;;;;;15.57;9.77;;;6.60;99.90;;;-141.84;84.82;19352.53;5072371;28;20699;-52
2023/04/08 07:20:51;;;;;;;14.40;9.70;;;6.70;99.90;;;-141.84;84.16;19360.66;5079952;28;20258;-51
2023/04/08 07:23:20;;;;;;;15.27;10.10;;;6.70;99.90;;;-141.84;84.23;19370.81;5069673;28;20229;-52
2023/04/08 07:25:48;;;;;;;15.30;10.00;;;6.70;99.90;;;-141.84;85.66;19350.50;5071963;28;20304;-55
2023/04/08 07:28:16;;;;;;;20.73;10.67;;;6.70;99.90;;;-141.84;84.78;19362.69;5069982;28;20195;-52
2023/04/08 07:30:46;;;;;;;17.67;10.60;;;6.80;99.90;;;-141.84;84.60;19356.59;5073794;28;20789;-56
2023/04/08 07:33:14;;;;;;;17.10;11.03;;;6.80;99.90;;;-141.84;84.57;19385.03;5072900;28;20238;-51
2023/04/08 07:35:44;;;;;;;18.87;11.07;;;6.80;99.90;;;-141.84;85.07;19320.00;5072480;28;20273;-52
2023/04/08 07:38:12;;;;;;;17.40;11.27;;;6.80;99.90;;;-141.84;85.31;19358.63;5072208;28;20654;-48
2023/04/08 07:40:40;;;;;;;19.40;11.73;;;6.80;99.90;;;-141.84;85.46;19362.69;5072614;28;20209;-51
2023/04/08 07:43:09;;;;;;;16.53;11.77;;;6.80;99.90;;;-141.84;85.25;19352.53;5072147;28;20208;-52
2023/04/08 07:45:37;;;;;;;18.57;12.60;;;7.00;99.90;;;-141.84;84.56;19366.75;5071721;28;20228;-54
2023/04/08 07:48:05;;;;;;;20.33;12.33;;;6.90;99.90;;;-141.84;85.02;19364.72;5071939;28;20242;-52
2023/04/08 07:50:36;;;;;;;19.50;13.13;;;7.00;99.90;;;-141.84;84.02;19385.03;5072106;28;20232;-55
2023/04/08 07:53:25;;;;;;;19.47;13.00;;;7.00;99.90;;;-141.84;83.65;19372.84;5071801;28;20714;-50
2023/04/08 07:55:53;;;;;;;20.50;13.47;;;7.00;99.90;;;-141.84;83.16;19387.06;5071583;28;20246;-54
2023/04/08 07:58:22;;;;;;;19.90;12.47;;;7.10;99.90;;;-141.84;82.26;19391.13;5072354;28;20555;-54
2023/04/08 08:00:51;;;;;;;19.50;12.83;;;7.20;99.90;;;-141.84;82.20;19439.91;5071539;28;20244;-52
2023/04/08 08:03:19;;;;;;;20.40;13.40;;;7.30;99.90;;;-141.84;81.28;19439.91;5071644;28;20239;-53
2023/04/08 08:05:47;;;;;;;20.43;12.50;;;7.60;99.90;;;-141.84;79.24;19498.84;5071286;28;20791;-51
2023/04/08 08:08:15;;;;;;;18.90;12.87;;;7.70;99.90;;;-141.84;77.74;19472.41;5071506;28;20231;-53
2023/04/08 08:10:45;;;;;;;18.63;12.73;;;7.70;99.90;;;-141.84;78.45;19464.28;5071515;28;20197;-53
2023/04/08 08:13:15;;;;;;;21.87;13.87;;;7.60;99.90;;;-141.84;78.51;19490.72;5071450;28;20684;-50
2023/04/08 08:15:44;;;;;;;20.03;13.87;;;7.70;99.90;;;-141.84;78.68;19474.44;5071102;28;20247;-53
2023/04/08 08:18:12;;;;;;;18.23;12.50;;;7.80;99.90;;;-141.84;79.05;19460.22;5088556;28;20232;-53
2023/04/08 08:20:40;;;;;;;19.83;13.63;;;7.80;99.90;;;-141.84;78.20;19466.31;5091444;28;20242;-52
2023/04/08 08:23:08;;;;;;;20.20;14.37;;;7.90;99.90;;;-141.84;78.76;19462.25;5091072;28;20223;-54
2023/04/08 08:25:36;;;;;;;20.40;14.30;;;8.00;99.90;;;-141.84;77.87;19490.72;5091818;28;20184;-54
2023/04/08 08:28:06;;;;;;;20.83;14.60;;;8.00;99.90;;;-141.84;76.58;19535.41;5082581;28;20201;-53
2023/04/08 08:30:34;;;;;;;19.73;14.00;;;8.10;99.90;;;-141.84;76.49;19543.53;5070547;28;20743;-54
2023/04/08 08:33:02;;;;;;;19.17;14.30;;;8.30;99.90;;;-141.84;74.16;19555.75;5069901;28;20228;-53
2023/04/08 08:35:30;;;;;;;18.67;14.20;;;8.40;99.90;;;-141.84;75.03;19561.84;5070824;28;20248;-53
2023/04/08 08:37:59;;;;;;;20.47;14.87;;;8.50;99.90;;;-141.84;75.74;19559.81;5071164;28;20240;-53
2023/04/08 08:40:27;;;;;;;18.60;14.03;;;8.60;99.90;;;-141.84;75.52;19580.13;5070871;28;20197;-54
2023/04/08 08:42:57;;;;;;;19.97;15.20;;;8.70;99.90;;;-141.84;73.34;19596.38;5070713;28;20216;-51
2023/04/08 08:45:27;;;;;;;21.17;15.00;;;8.80;99.90;;;-141.84;73.94;19594.34;5070007;28;20748;-55
2023/04/08 08:47:56;;;;;;;18.77;13.73;;;8.80;99.90;;;-141.84;71.59;19630.94;5070594;28;20221;-53
2023/04/08 08:50:25;;;;;;;19.17;13.37;;;8.90;99.90;;;-141.84;72.52;19582.16;5070801;28;20302;-53
2023/04/08 08:52:53;;;;;;;20.77;14.50;;;8.90;99.90;;;-141.84;73.25;19582.16;5070336;28;20225;-51
2023/04/08 08:55:22;;;;;;;20.50;14.53;;;8.80;99.90;;;-141.84;72.55;19610.59;5071272;28;20205;-55
2023/04/08 08:57:53;;;;;;;19.67;14.27;;;8.70;99.90;;;-141.84;72.45;19610.59;5070961;28;20217;-52
2023/04/08 09:00:33;;;;;;;20.60;15.63;;;8.80;99.90;;;-141.84;72.64;19578.09;5069090;28;20227;-55
2023/04/08 09:03:20;;;;;;;22.80;15.57;;;8.80;99.90;;;-141.84;73.40;19598.41;5070323;28;20311;-50
2023/04/08 09:05:51;;;;;;;21.83;15.43;;;8.70;99.90;;;-141.84;71.83;19645.16;5053593;28;20323;-52
2023/04/08 09:08:32;;;;;;;21.00;15.07;;;8.90;99.90;;;-141.84;70.88;19675.63;5070068;28;20224;-50
2023/04/08 09:11:15;;;;;;;20.67;14.97;;;9.10;99.90;;;-141.84;72.31;19647.19;5070571;28;20228;-50
2023/04/08 09:13:44;;;;;;;19.27;14.80;;;9.20;99.90;;;-141.84;70.51;19661.41;5069673;28;20595;-52
2023/04/08 09:16:16;;;;;;;20.73;14.53;;;9.30;99.90;;;-141.84;70.93;19671.56;5070019;28;20223;-53
2023/04/08 09:18:48;;;;;;;20.43;15.40;;;9.40;99.90;;;-141.84;70.67;19710.19;5069723;28;20303;-49
2023/04/08 09:21:17;;;;;;;20.40;14.57;;;9.50;99.90;;;-141.84;69.82;19681.75;5067408;28;20233;-53
2023/04/08 09:23:48;;;;;;;20.27;15.77;;;9.50;99.90;;;-141.84;68.48;19720.34;5049761;28;20252;-52
2023/04/08 09:26:20;;;;;;;20.87;15.20;;;9.60;99.90;;;-141.84;69.46;19720.34;5050363;28;20237;-52
2023/04/08 09:29:01;;;;;;;20.63;15.47;;;9.60;99.90;;;-141.84;69.59;19687.84;5063851;28;20307;-53
2023/04/08 09:31:47;;;;;;;22.27;15.30;;;9.60;99.90;;;-141.84;70.72;19649.22;5050169;28;20241;-53
2023/04/08 09:34:19;;;;;;;22.77;16.70;;;9.40;99.90;;;-141.84;71.64;19624.84;5066701;28;20653;-55
2023/04/08 09:36:48;;;;;;;21.60;16.57;;;9.20;99.90;;;-141.84;72.54;19614.66;5070187;28;20730;-55
2023/04/08 09:39:16;;;;;;;21.97;16.40;;;9.00;99.90;;;-141.84;73.62;19600.44;5069774;28;20234;-55
2023/04/08 09:41:48;;;;;;;21.40;16.20;;;8.90;99.90;;;-141.84;74.40;19523.22;5070095;28;20231;-49
2023/04/08 09:44:19;;;;;;;23.33;17.33;;;8.80;99.90;;;-141.84;74.42;19555.75;5069046;28;20212;-51
2023/04/08 09:47:01;;;;;;;21.67;15.73;;;8.60;99.90;;;-141.84;74.52;19549.63;5050564;28;20286;-54
2023/04/08 09:49:38;;;;;;;24.03;17.23;;;8.40;99.90;;;-141.84;74.54;19541.50;5053834;28;20672;-52
2023/04/08 09:52:09;;;;;;;25.40;17.77;;;8.40;99.90;;;-141.84;74.48;19559.81;5069569;28;20185;-51
2023/04/08 09:54:50;;;;;;;23.60;17.77;;;8.40;99.90;;;-141.84;74.75;19533.38;5069546;28;20217;-50
2023/04/08 09:57:32;;;;;;;22.90;17.33;;;8.50;99.90;;;-141.84;75.36;19533.38;5069585;28;20231;-55
2023/04/08 10:00:08;;;;;;;23.63;17.00;;;8.50;99.90;;;-141.84;75.72;19567.94;5069308;28;20223;-54
2023/04/08 10:02:49;;;;;;;25.13;17.13;;;8.60;99.90;;;-141.84;75.39;19551.69;5069941;28;20216;-55
2023/04/08 10:05:18;;;;;;;24.40;17.37;;;8.70;99.90;;;-141.84;74.24;19604.50;5069808;28;20662;-55
2023/04/08 10:07:48;;;;;;;26.07;18.40;;;8.70;99.90;;;-141.84;74.75;19535.41;5069209;28;20227;-53
2023/04/08 10:10:17;;;;;;;23.90;18.13;;;8.60;99.90;;;-141.84;75.04;19547.59;5069891;28;20203;-51
2023/04/08 10:12:45;;;;;;;25.53;18.33;;;8.60;99.90;;;-141.84;74.97;19559.81;5073072;28;20220;-53
2023/04/08 10:15:25;;;;;;;23.70;17.20;;;8.60;99.90;;;-141.84;76.62;19511.03;5079231;28;20225;-53
2023/04/08 10:18:18;;;;;;;26.60;18.50;;;8.50;99.90;;;-141.84;76.35;19557.78;5069348;28;20227;-56
2023/04/08 10:20:48;;;;;;;24.13;17.67;;;8.50;99.90;;;-141.84;74.40;19576.06;5068943;28;20726;-56